createdAt,value
2018-05-18T00:01:13.300Z,64.60
2018-05-18T00:03:41.710Z,59.73
2018-05-18T00:06:09.870Z,61.57
2018-05-18T00:08:38.145Z,68.17
2018-05-18T00:11:06.402Z,72.30
2018-05-18T00:13:34.654Z,69.40
2018-05-18T00:16:02.932Z,64.93
2018-05-18T00:18:31.216Z,72.30
2018-05-18T00:20:59.463Z,90.20
2018-05-18T00:23:27.727Z,79.17
2018-05-18T00:25:55.983Z,64.60
2018-05-18T00:28:24.260Z,63.30
2018-05-18T00:30:52.556Z,59.07
2018-05-18T00:33:20.827Z,62.30
2018-05-18T00:35:49.107Z,73.72
2018-05-18T00:38:17.380Z,76.97
2018-05-18T00:40:45.663Z,69.73
2018-05-18T00:43:13.936Z,68.00
2018-05-18T00:45:42.198Z,69.13
2018-05-18T00:48:10.459Z,69.00
2018-05-18T00:50:38.711Z,59.90
2018-05-18T00:53:06.977Z,60.90
2018-05-18T00:55:41.031Z,58.97
2018-05-18T00:58:09.327Z,60.37
2018-05-18T01:00:37.603Z,78.60
2018-05-18T01:03:05.869Z,62.57
2018-05-18T01:05:34.130Z,61.70
2018-05-18T01:08:02.386Z,74.00
2018-05-18T01:10:30.648Z,66.23
2018-05-18T01:12:58.922Z,67.70
2018-05-18T01:15:27.175Z,77.07
2018-05-18T01:17:55.447Z,89.75
2018-05-18T01:20:23.699Z,81.40
2018-05-18T01:22:51.965Z,80.17
2018-05-18T01:25:20.240Z,80.70
2018-05-18T01:27:48.507Z,75.13
2018-05-18T01:30:16.767Z,81.60
2018-05-18T01:32:45.035Z,79.73
2018-05-18T01:35:13.363Z,74.27
2018-05-18T01:37:41.627Z,67.27
2018-05-18T01:40:09.883Z,71.63
2018-05-18T01:42:38.202Z,61.07
2018-05-18T01:45:06.464Z,57.10
2018-05-18T01:47:34.730Z,59.67
2018-05-18T01:50:03.000Z,60.30
2018-05-18T01:52:31.267Z,59.85
2018-05-18T01:55:00.291Z,57.72
2018-05-18T01:57:28.559Z,61.33
2018-05-18T01:59:56.830Z,64.87
2018-05-18T02:02:25.089Z,73.23
2018-05-18T02:04:53.351Z,71.63
2018-05-18T02:07:21.611Z,88.60
2018-05-18T02:09:50.182Z,96.77
2018-05-18T02:12:18.436Z,80.20
2018-05-18T02:14:46.705Z,91.87
2018-05-18T02:17:14.967Z,73.80
2018-05-18T02:19:43.243Z,76.03
2018-05-18T02:22:11.494Z,84.60
2018-05-18T02:24:39.760Z,73.77
2018-05-18T02:27:08.015Z,70.33
2018-05-18T02:29:36.292Z,86.80
2018-05-18T02:32:04.564Z,77.65
2018-05-18T02:34:32.983Z,92.53
2018-05-18T02:37:01.222Z,85.50
2018-05-18T02:39:29.479Z,67.43
2018-05-18T02:41:57.754Z,69.27
2018-05-18T02:44:26.019Z,72.03
2018-05-18T02:46:54.270Z,67.03
2018-05-18T02:49:22.531Z,68.30
2018-05-18T02:51:50.786Z,60.83
2018-05-18T02:54:19.099Z,64.05
2018-05-18T02:56:48.087Z,66.00
2018-05-18T02:59:16.373Z,77.13
2018-05-18T03:01:44.629Z,92.53
2018-05-18T03:04:12.888Z,93.07
2018-05-18T03:06:41.139Z,90.10
2018-05-18T03:09:09.410Z,104.07
2018-05-18T03:11:37.680Z,102.83
2018-05-18T03:14:05.943Z,86.93
2018-05-18T03:16:34.192Z,81.73
2018-05-18T03:19:02.459Z,95.67
2018-05-18T03:21:30.710Z,93.20
2018-05-18T03:23:58.978Z,86.27
2018-05-18T03:26:27.339Z,63.90
2018-05-18T03:28:55.598Z,69.43
2018-05-18T03:31:23.854Z,67.67
2018-05-18T03:33:52.118Z,85.93
2018-05-18T03:36:21.134Z,77.97
2018-05-18T03:38:49.389Z,91.97
2018-05-18T03:41:17.651Z,81.00
2018-05-18T03:43:45.911Z,73.90
2018-05-18T03:46:14.175Z,79.60
2018-05-18T03:48:42.519Z,71.87
2018-05-18T03:51:10.715Z,85.47
2018-05-18T03:53:38.991Z,83.93
2018-05-18T03:56:07.259Z,82.82
2018-05-18T03:58:36.223Z,79.78
2018-05-18T04:01:04.490Z,78.63
2018-05-18T04:03:50.324Z,86.37
2018-05-18T04:06:36.198Z,81.80
2018-05-18T04:09:04.458Z,88.28
2018-05-18T04:11:33.423Z,118.45
2018-05-18T04:14:01.679Z,145.10
2018-05-18T04:16:29.957Z,115.15
2018-05-18T04:18:58.303Z,110.70
2018-05-18T04:21:26.580Z,92.80
2018-05-18T04:23:54.831Z,88.50
2018-05-18T04:26:23.112Z,106.13
2018-05-18T04:28:51.359Z,91.97
2018-05-18T04:31:19.632Z,99.07
2018-05-18T04:33:47.887Z,82.70
2018-05-18T04:36:16.155Z,82.03
2018-05-18T04:38:44.515Z,79.82
2018-05-18T04:41:12.768Z,85.70
2018-05-18T04:43:41.026Z,76.30
2018-05-18T04:46:09.294Z,69.07
2018-05-18T04:48:37.539Z,66.37
2018-05-18T04:51:05.907Z,66.27
2018-05-18T04:53:34.059Z,71.83
2018-05-18T04:56:02.323Z,63.60
2018-05-18T04:58:30.599Z,61.10
2018-05-18T05:00:58.875Z,57.67
2018-05-18T05:03:27.127Z,51.30
2018-05-18T05:05:55.404Z,49.27
2018-05-18T05:08:23.659Z,47.87
2018-05-18T05:10:51.934Z,45.30
2018-05-18T05:13:20.185Z,41.03
2018-05-18T05:15:48.474Z,33.83
2018-05-18T05:18:16.730Z,35.80
2018-05-18T05:20:44.998Z,39.13
2018-05-18T05:23:14.024Z,41.20
2018-05-18T05:25:42.297Z,40.10
2018-05-18T05:28:10.551Z,36.53
2018-05-18T05:30:38.815Z,40.17
2018-05-18T05:33:07.098Z,35.97
2018-05-18T05:35:35.367Z,33.33
2018-05-18T05:38:03.627Z,37.10
2018-05-18T05:40:31.890Z,38.73
2018-05-18T05:43:00.204Z,33.93
2018-05-18T05:45:28.469Z,38.73
2018-05-18T05:47:56.763Z,37.63
2018-05-18T05:50:25.027Z,37.53
2018-05-18T05:52:53.301Z,39.10
2018-05-18T05:55:21.551Z,39.10
2018-05-18T05:57:49.823Z,39.60
2018-05-18T06:00:18.088Z,42.90
2018-05-18T06:02:46.359Z,37.40
2018-05-18T06:05:14.702Z,34.97
2018-05-18T06:07:42.892Z,42.30
2018-05-18T06:10:11.147Z,43.30
2018-05-18T06:12:39.403Z,37.13
2018-05-18T06:15:07.671Z,39.53
2018-05-18T06:17:35.967Z,38.60
2018-05-18T06:20:04.223Z,40.57
2018-05-18T06:22:32.490Z,41.07
2018-05-18T06:25:00.801Z,42.20
2018-05-18T06:27:29.066Z,36.53
2018-05-18T06:29:57.331Z,40.67
2018-05-18T06:32:25.610Z,37.10
2018-05-18T06:34:54.622Z,37.40
2018-05-18T06:37:22.829Z,42.23
2018-05-18T06:39:51.077Z,37.85
2018-05-18T06:42:19.372Z,40.40
2018-05-18T06:44:47.615Z,42.83
2018-05-18T06:47:15.883Z,36.53
2018-05-18T06:49:44.139Z,42.70
2018-05-18T06:52:12.407Z,30.43
2018-05-18T06:54:40.678Z,36.80
2018-05-18T06:57:08.948Z,37.37
2018-05-18T06:59:37.215Z,34.40
2018-05-18T07:02:05.480Z,33.93
2018-05-18T07:04:33.734Z,32.77
2018-05-18T07:07:02.004Z,38.23
2018-05-18T07:09:30.279Z,38.93
2018-05-18T07:11:58.546Z,38.93
2018-05-18T07:14:26.812Z,34.37
2018-05-18T07:16:55.079Z,36.53
2018-05-18T07:19:23.337Z,35.63
2018-05-18T07:21:51.659Z,34.40
2018-05-18T07:24:19.929Z,29.60
2018-05-18T07:26:48.207Z,33.17
2018-05-18T07:29:16.462Z,33.83
2018-05-18T07:31:44.724Z,36.50
2018-05-18T07:34:13.038Z,40.10
2018-05-18T07:36:41.293Z,39.93
2018-05-18T07:39:09.563Z,40.13
2018-05-18T07:41:37.827Z,40.33
2018-05-18T07:44:06.088Z,39.53
2018-05-18T07:46:35.063Z,40.85
2018-05-18T07:49:03.326Z,40.43
2018-05-18T07:51:31.587Z,46.00
2018-05-18T07:53:59.854Z,39.67
2018-05-18T07:56:28.111Z,47.23
2018-05-18T07:58:56.375Z,43.00
2018-05-18T08:01:24.635Z,42.07
2018-05-18T08:03:52.890Z,39.50
2018-05-18T08:06:21.180Z,40.83
2018-05-18T08:08:49.454Z,37.07
2018-05-18T08:11:17.715Z,39.67
2018-05-18T08:13:45.996Z,33.17
2018-05-18T08:16:14.274Z,32.30
2018-05-18T08:18:42.550Z,32.45
2018-05-18T08:21:11.522Z,29.13
2018-05-18T08:23:41.543Z,29.43
2018-05-18T08:26:10.703Z,28.77
2018-05-18T08:28:58.667Z,27.90
2018-05-18T08:31:26.930Z,24.73
2018-05-18T08:33:55.199Z,28.00
2018-05-18T08:36:23.459Z,30.00
2018-05-18T08:38:51.735Z,31.90
2018-05-18T08:41:19.987Z,27.37
2018-05-18T08:43:48.254Z,28.08
2018-05-18T08:46:16.517Z,26.20
2018-05-18T08:48:44.774Z,27.47
2018-05-18T08:51:13.026Z,27.13
2018-05-18T08:53:41.294Z,27.58
2018-05-18T08:56:09.551Z,25.33
2018-05-18T08:58:37.822Z,26.45
2018-05-18T09:01:06.078Z,29.20
2018-05-18T09:03:34.355Z,27.20
2018-05-18T09:06:02.718Z,22.60
2018-05-18T09:08:30.984Z,19.50
2018-05-18T09:10:59.247Z,23.50
2018-05-18T09:13:27.512Z,23.50
2018-05-18T09:15:56.371Z,22.82
2018-05-18T09:18:24.639Z,24.60
2018-05-18T09:20:52.900Z,24.87
2018-05-18T09:23:21.175Z,22.37
2018-05-18T09:25:49.444Z,22.75
2018-05-18T09:28:17.694Z,25.30
2018-05-18T09:30:45.962Z,21.97
2018-05-18T09:33:14.215Z,21.80
2018-05-18T09:35:42.548Z,24.30
2018-05-18T09:38:11.126Z,19.85
2018-05-18T09:40:39.389Z,22.83
2018-05-18T09:43:07.637Z,21.00
2018-05-18T09:45:35.915Z,21.23
2018-05-18T09:48:04.183Z,30.12
2018-05-18T09:50:32.505Z,19.30
2018-05-18T09:53:00.760Z,21.00
2018-05-18T09:55:29.193Z,17.45
2018-05-18T09:57:58.151Z,19.50
2018-05-18T10:00:26.418Z,18.80
2018-05-18T10:02:54.683Z,21.07
2018-05-18T10:05:22.950Z,16.25
2018-05-18T10:07:51.213Z,16.60
2018-05-18T10:10:19.486Z,18.48
2018-05-18T10:12:47.743Z,16.20
2018-05-18T10:15:16.003Z,18.27
2018-05-18T10:17:44.254Z,16.52
2018-05-18T10:20:12.528Z,17.00
2018-05-18T10:22:40.795Z,14.70
2018-05-18T10:25:09.058Z,15.80
2018-05-18T10:27:37.319Z,16.80
2018-05-18T10:30:05.587Z,19.17
2018-05-18T10:32:33.848Z,16.60
2018-05-18T10:35:02.115Z,16.30
2018-05-18T10:37:30.380Z,21.10
2018-05-18T10:39:58.638Z,18.70
2018-05-18T10:42:26.891Z,18.87
2018-05-18T10:44:55.161Z,16.00
2018-05-18T10:47:23.406Z,16.87
2018-05-18T10:49:51.688Z,15.27
2018-05-18T10:52:19.954Z,17.50
2018-05-18T10:54:48.225Z,15.73
2018-05-18T10:57:16.487Z,19.15
2018-05-18T10:59:44.754Z,16.42
2018-05-18T11:02:13.015Z,17.57
2018-05-18T11:04:41.321Z,14.13
2018-05-18T11:07:09.583Z,17.85
2018-05-18T11:09:37.843Z,11.00
2018-05-18T11:12:06.107Z,11.90
2018-05-18T11:14:34.373Z,13.03
2018-05-18T11:17:02.640Z,9.73
2018-05-18T11:19:30.907Z,10.27
2018-05-18T11:21:59.179Z,13.82
2018-05-18T11:24:27.443Z,13.17
2018-05-18T11:26:55.703Z,12.07
2018-05-18T11:29:24.467Z,13.72
2018-05-18T11:31:52.748Z,13.48
2018-05-18T11:34:21.000Z,16.12
2018-05-18T11:36:49.259Z,15.47
2018-05-18T11:39:17.604Z,12.85
2018-05-18T11:41:45.879Z,15.68
2018-05-18T11:44:14.209Z,13.27
2018-05-18T11:46:42.398Z,17.93
2018-05-18T11:49:10.648Z,18.33
2018-05-18T11:51:38.926Z,14.52
2018-05-18T11:54:07.184Z,16.80
2018-05-18T11:56:35.459Z,14.02
2018-05-18T11:59:03.717Z,17.77
2018-05-18T12:01:31.984Z,11.15
2018-05-18T12:04:00.235Z,13.63
2018-05-18T12:06:28.503Z,13.20
2018-05-18T12:08:56.764Z,17.92
2018-05-18T12:11:25.027Z,9.55
2018-05-18T12:13:53.283Z,12.75
2018-05-18T12:16:21.543Z,14.23
2018-05-18T12:18:49.809Z,11.82
2018-05-18T12:21:18.071Z,14.68
2018-05-18T12:23:46.326Z,13.90
2018-05-18T12:26:14.629Z,12.70
2018-05-18T12:28:42.852Z,13.67
2018-05-18T12:31:11.118Z,15.75
2018-05-18T12:33:39.378Z,14.98
2018-05-18T12:36:07.646Z,15.17
2018-05-18T12:38:35.903Z,15.63
2018-05-18T12:41:04.889Z,16.56
2018-05-18T12:43:33.149Z,18.33
2018-05-18T12:46:01.420Z,15.57
2018-05-18T12:48:29.743Z,11.83
2018-05-18T12:50:58.025Z,12.90
2018-05-18T12:53:26.282Z,12.30
2018-05-18T12:55:54.531Z,11.47
2018-05-18T12:58:22.797Z,14.87
2018-05-18T13:00:51.047Z,14.40
2018-05-18T13:03:19.335Z,12.68
2018-05-18T13:05:47.592Z,14.10
2018-05-18T13:08:16.001Z,16.45
2018-05-18T13:10:44.200Z,14.32
2018-05-18T13:13:12.476Z,13.23
2018-05-18T13:15:40.726Z,13.10
2018-05-18T13:18:08.986Z,12.93
2018-05-18T13:20:37.240Z,10.23
2018-05-18T13:23:05.516Z,9.15
2018-05-18T13:25:33.762Z,11.52
2018-05-18T13:28:02.319Z,13.20
2018-05-18T13:30:30.573Z,13.10
2018-05-18T13:32:58.828Z,12.30
2018-05-18T13:35:27.091Z,13.43
2018-05-18T13:37:55.352Z,11.07
2018-05-18T13:40:23.601Z,14.32
2018-05-18T13:42:51.874Z,11.77
2018-05-18T13:45:20.126Z,11.05
2018-05-18T13:47:48.476Z,12.83
2018-05-18T13:50:16.729Z,9.63
2018-05-18T13:52:44.983Z,14.05
2018-05-18T13:55:13.247Z,11.05
2018-05-18T13:57:41.516Z,11.77
2018-05-18T14:00:09.762Z,10.37
2018-05-18T14:02:38.029Z,12.05
2018-05-18T14:05:06.280Z,12.55
2018-05-18T14:07:34.546Z,12.88
2018-05-18T14:10:02.850Z,14.20
2018-05-18T14:12:31.123Z,10.20
2018-05-18T14:14:59.374Z,12.27
2018-05-18T14:17:27.650Z,12.70
2018-05-18T14:19:55.898Z,12.40
2018-05-18T14:22:24.183Z,13.62
2018-05-18T14:24:52.453Z,14.43
2018-05-18T14:27:20.699Z,12.37
2018-05-18T14:29:48.964Z,16.80
2018-05-18T14:32:17.239Z,11.98
2018-05-18T14:34:45.513Z,14.55
2018-05-18T14:37:13.758Z,14.83
2018-05-18T14:39:42.028Z,12.47
2018-05-18T14:42:10.287Z,18.70
2018-05-18T14:44:38.551Z,14.30
2018-05-18T14:47:06.816Z,14.50
2018-05-18T14:49:35.075Z,17.10
2018-05-18T14:52:03.345Z,11.43
2018-05-18T14:54:31.619Z,16.58
2018-05-18T14:56:59.871Z,12.98
2018-05-18T14:59:28.138Z,13.63
2018-05-18T15:01:56.394Z,13.37
2018-05-18T15:04:24.662Z,9.35
2018-05-18T15:06:52.910Z,17.48
2018-05-18T15:09:21.171Z,13.97
2018-05-18T15:11:49.431Z,12.35
2018-05-18T15:14:18.406Z,12.90
2018-05-18T15:16:46.660Z,14.48
2018-05-18T15:19:14.919Z,14.67
2018-05-18T15:21:43.187Z,11.23
2018-05-18T15:24:11.446Z,18.73
2018-05-18T15:26:39.729Z,15.00
2018-05-18T15:29:08.005Z,12.50
2018-05-18T15:31:36.299Z,12.63
2018-05-18T15:34:04.555Z,11.68
2018-05-18T15:36:32.802Z,13.02
2018-05-18T15:39:01.075Z,16.33
2018-05-18T15:41:29.331Z,15.53
2018-05-18T15:43:57.663Z,14.48
2018-05-18T15:46:25.950Z,13.70
2018-05-18T15:48:54.227Z,11.50
2018-05-18T15:51:22.488Z,14.27
2018-05-18T15:53:50.752Z,10.50
2018-05-18T15:56:19.015Z,9.82
2018-05-18T15:58:47.287Z,10.82
2018-05-18T16:01:15.538Z,14.70
2018-05-18T16:03:43.804Z,14.15
2018-05-18T16:06:12.066Z,13.30
2018-05-18T16:08:40.342Z,10.02
2018-05-18T16:11:08.591Z,9.40
2018-05-18T16:13:36.832Z,9.07
2018-05-18T16:16:05.107Z,10.65
2018-05-18T16:18:33.366Z,8.48
2018-05-18T16:21:01.724Z,9.33
2018-05-18T16:23:29.951Z,9.27
2018-05-18T16:25:58.852Z,11.44
2018-05-18T16:28:27.871Z,12.35
2018-05-18T16:30:56.140Z,8.07
2018-05-18T16:33:24.440Z,8.37
2018-05-18T16:35:52.642Z,7.25
2018-05-18T16:38:20.918Z,10.90
2018-05-18T16:40:49.171Z,9.47
2018-05-18T16:43:17.423Z,8.00
2018-05-18T16:45:45.689Z,7.83
2018-05-18T16:48:13.934Z,7.03
2018-05-18T16:50:42.207Z,7.90
2018-05-18T16:53:10.518Z,9.50
2018-05-18T16:55:38.779Z,10.23
2018-05-18T16:58:07.036Z,7.77
2018-05-18T17:00:35.290Z,7.47
2018-05-18T17:03:04.666Z,7.70
2018-05-18T17:05:32.943Z,7.93
2018-05-18T17:08:01.198Z,6.90
2018-05-18T17:10:29.450Z,8.53
2018-05-18T17:12:57.708Z,4.93
2018-05-18T17:15:25.970Z,4.83
2018-05-18T17:17:55.464Z,7.53
2018-05-18T17:20:23.739Z,6.83
2018-05-18T17:22:51.986Z,7.23
2018-05-18T17:25:20.242Z,5.75
2018-05-18T17:27:48.504Z,7.03
2018-05-18T17:30:17.522Z,4.80
2018-05-18T17:32:45.771Z,5.20
2018-05-18T17:35:14.039Z,6.30
2018-05-18T17:37:42.283Z,5.83
2018-05-18T17:40:10.546Z,5.90
2018-05-18T17:42:38.825Z,8.07
2018-05-18T17:45:07.056Z,4.23
2018-05-18T17:47:35.306Z,5.70
2018-05-18T17:50:03.558Z,6.03
2018-05-18T17:52:31.810Z,5.00
2018-05-18T17:55:00.059Z,6.40
2018-05-18T17:57:28.327Z,8.70
2018-05-18T17:59:56.580Z,4.23
2018-05-18T18:02:24.844Z,8.90
2018-05-18T18:04:53.098Z,7.73
2018-05-18T18:07:21.353Z,7.30
2018-05-18T18:09:49.618Z,8.37
2018-05-18T18:12:17.888Z,7.17
2018-05-18T18:14:46.155Z,9.03
2018-05-18T18:17:14.418Z,6.17
2018-05-18T18:19:43.610Z,11.53
2018-05-18T18:22:11.862Z,5.87
2018-05-18T18:24:40.119Z,8.60
2018-05-18T18:27:08.379Z,6.93
2018-05-18T18:29:36.623Z,6.53
2018-05-18T18:32:04.883Z,7.47
2018-05-18T18:34:33.142Z,5.67
2018-05-18T18:37:01.500Z,7.30
2018-05-18T18:39:29.760Z,6.03
2018-05-18T18:41:58.049Z,8.80
2018-05-18T18:44:26.315Z,6.47
2018-05-18T18:46:54.571Z,8.13
2018-05-18T18:49:22.818Z,6.90
2018-05-18T18:51:51.082Z,5.40
2018-05-18T18:54:19.331Z,8.97
2018-05-18T18:56:47.590Z,7.67
2018-05-18T18:59:15.840Z,7.70
2018-05-18T19:01:44.160Z,7.70
2018-05-18T19:04:12.402Z,7.13
2018-05-18T19:06:40.674Z,6.03
2018-05-18T19:09:08.922Z,7.20
2018-05-18T19:11:37.184Z,5.77
2018-05-18T19:14:05.436Z,5.53
2018-05-18T19:16:33.695Z,8.50
2018-05-18T19:19:01.955Z,5.57
2018-05-18T19:21:30.667Z,9.27
2018-05-18T19:23:58.914Z,7.57
2018-05-18T19:26:27.178Z,8.27
2018-05-18T19:28:55.435Z,10.53
2018-05-18T19:31:23.703Z,7.20
2018-05-18T19:33:51.953Z,6.80
2018-05-18T19:36:20.210Z,8.07
2018-05-18T19:38:48.476Z,6.13
2018-05-18T19:41:16.726Z,6.63
2018-05-18T19:43:45.000Z,9.63
2018-05-18T19:46:13.252Z,6.63
2018-05-18T19:48:41.506Z,6.20
2018-05-18T19:51:09.795Z,6.23
2018-05-18T19:53:38.059Z,7.93
2018-05-18T19:56:06.315Z,10.27
2018-05-18T19:58:34.571Z,7.00
2018-05-18T20:01:02.827Z,8.03
2018-05-18T20:03:31.107Z,10.17
2018-05-18T20:05:59.342Z,10.37
2018-05-18T20:08:27.599Z,9.70
2018-05-18T20:10:55.846Z,9.40
2018-05-18T20:13:24.110Z,9.67
2018-05-18T20:15:52.355Z,7.10
2018-05-18T20:18:20.622Z,10.83
2018-05-18T20:20:48.869Z,8.88
2018-05-18T20:23:17.894Z,7.78
2018-05-18T20:25:46.148Z,9.07
2018-05-18T20:28:14.418Z,12.50
2018-05-18T20:30:42.723Z,12.43
2018-05-18T20:33:10.995Z,8.73
2018-05-18T20:35:39.260Z,11.53
2018-05-18T20:38:07.541Z,12.40
2018-05-18T20:40:36.540Z,11.77
2018-05-18T20:43:04.803Z,10.03
2018-05-18T20:45:33.055Z,10.43
2018-05-18T20:48:01.315Z,10.33
2018-05-18T20:50:29.579Z,9.17
2018-05-18T20:52:57.838Z,10.97
2018-05-18T20:55:26.094Z,13.53
2018-05-18T20:57:54.362Z,8.93
2018-05-18T21:00:22.680Z,6.27
2018-05-18T21:02:50.945Z,8.67
2018-05-18T21:05:19.196Z,7.77
2018-05-18T21:07:47.459Z,7.87
2018-05-18T21:10:15.711Z,10.13
2018-05-18T21:12:43.971Z,7.50
2018-05-18T21:15:12.233Z,9.97
2018-05-18T21:17:40.495Z,12.47
2018-05-18T21:20:08.750Z,9.43
2018-05-18T21:22:37.048Z,9.02
2018-05-18T21:25:05.954Z,8.98
2018-05-18T21:27:34.196Z,9.90
2018-05-18T21:30:02.466Z,8.07
2018-05-18T21:32:30.731Z,10.10
2018-05-18T21:34:59.005Z,11.27
2018-05-18T21:37:27.254Z,10.80
2018-05-18T21:39:55.516Z,12.67
2018-05-18T21:42:23.772Z,10.40
2018-05-18T21:44:52.031Z,12.00
2018-05-18T21:47:20.288Z,15.00
2018-05-18T21:49:48.583Z,10.70
2018-05-18T21:52:16.843Z,8.52
2018-05-18T21:54:45.116Z,8.30
2018-05-18T21:57:13.366Z,9.73
2018-05-18T21:59:41.631Z,10.43
2018-05-18T22:02:09.879Z,9.33
2018-05-18T22:04:38.144Z,8.50
2018-05-18T22:07:06.398Z,9.23
2018-05-18T22:09:34.669Z,9.73
2018-05-18T22:12:02.922Z,10.23
2018-05-18T22:17:29.500Z,8.27
2018-05-18T22:19:57.746Z,9.30
2018-05-18T22:22:25.991Z,9.63
2018-05-18T22:24:54.239Z,9.68
2018-05-18T22:27:22.487Z,13.27
2018-05-18T22:29:50.749Z,12.47
2018-05-18T22:32:18.990Z,13.50
2018-05-18T22:34:47.350Z,12.83
2018-05-18T22:37:15.598Z,11.77
2018-05-18T22:39:43.859Z,12.77
2018-05-18T22:42:12.104Z,9.80
2018-05-18T22:44:40.362Z,11.57
2018-05-18T22:47:08.607Z,13.77
2018-05-18T22:49:36.890Z,11.43
2018-05-18T22:52:05.134Z,8.57
2018-05-18T22:54:33.390Z,11.00
2018-05-18T22:57:01.658Z,9.95
2018-05-18T22:59:29.898Z,12.43
2018-05-18T23:01:58.146Z,9.50
2018-05-18T23:04:26.406Z,11.17
2018-05-18T23:06:54.666Z,9.67
2018-05-18T23:09:23.014Z,11.53
2018-05-18T23:11:51.167Z,13.80
2018-05-18T23:14:19.442Z,11.40
2018-05-18T23:16:47.710Z,11.73
2018-05-18T23:19:15.963Z,12.07
2018-05-18T23:21:44.204Z,12.67
2018-05-18T23:24:12.456Z,11.80
2018-05-18T23:26:40.732Z,11.37
2018-05-18T23:29:08.998Z,12.47
2018-05-18T23:31:37.295Z,13.03
2018-05-18T23:34:05.603Z,16.13
2018-05-18T23:36:33.863Z,13.93
2018-05-18T23:39:03.012Z,13.60
2018-05-18T23:41:32.031Z,14.13
2018-05-18T23:44:00.271Z,12.50
2018-05-18T23:46:29.287Z,15.67
2018-05-18T23:48:57.553Z,14.77
2018-05-18T23:51:25.790Z,10.67
2018-05-18T23:53:54.052Z,14.80
2018-05-18T23:56:22.303Z,12.33
2018-05-18T23:58:50.555Z,12.37
